Погода Блинына неделю

Витебская область, Белоруссия

21 - 27 мая
  • 21мая
    Сегодня
    +12°
    +24°
    Облачно с прояснениями
    ВремяПогодаТемператураВлажностьДавлениеВетер, м/сВероятность осадков
    00:00Практически безоблачно+15°C95 %747 мм1.7 м/с2 %
    03:00Ясно и безоблачно+12°C94 %747 мм2.2 м/с2 %
    06:00Ясно и безоблачно+12°C94 %748 мм1.1 м/с2 %
    09:00Ясно и безоблачно+19°C69 %749 мм1.3 м/с2 %
    12:00Ясно и безоблачно+23°C53 %749 мм0.9 м/с2 %
    15:00Облачно с прояснениями+24°C48 %748 мм1.0 м/с19 %
    18:00Небольшая облачность, ливень+21°C67 %749 мм2.9 м/с55 %
    21:00Небольшая облачность+18°C85 %749 мм1.7 м/с13 %
  • 22мая
    Среда
    +12°
    +24°
    Пасмурно, небольшой дождь
    ВремяПогодаТемператураВлажностьДавлениеВетер, м/сВероятность осадков
    00:00Ясно и безоблачно+15°C91 %749 мм1.9 м/с1 %
    03:00Ясно и безоблачно+13°C91 %749 мм2.7 м/с1 %
    06:00Ясно и безоблачно+13°C88 %749 мм3.3 м/с2 %
    09:00Ясно и безоблачно+18°C75 %750 мм2.7 м/с2 %
    12:00Практически безоблачно+22°C63 %750 мм3.2 м/с14 %
    15:00Пасмурно, небольшой дождь+24°C54 %749 мм2.5 м/с47 %
    18:00Небольшая облачность, ливень+22°C66 %750 мм3.7 м/с55 %
    21:00Ясно и безоблачно+18°C78 %750 мм3.2 м/с7 %
  • 23мая
    Четверг
    +11°
    +24°
    Ясно и безоблачно
    ВремяПогодаТемператураВлажностьДавлениеВетер, м/сВероятность осадков
    00:00Ясно и безоблачно+15°C87 %751 мм3.0 м/с1 %
    03:00Ясно и безоблачно+14°C67 %751 мм3.8 м/с3 %
    06:00Ясно и безоблачно+13°C69 %752 мм4.0 м/с3 %
    09:00Ясно и безоблачно+17°C60 %753 мм3.8 м/с2 %
    12:00Ясно и безоблачно+22°C43 %753 мм5.2 м/с4 %
    15:00Ясно и безоблачно+23°C42 %753 мм4.8 м/с7 %
    18:00Ясно и безоблачно+23°C44 %753 мм4.9 м/с9 %
    21:00Ясно и безоблачно+18°C55 %754 мм3.6 м/с2 %
  • 24мая
    Пятница
    +10°
    +24°
    Ясно и безоблачно
    ВремяПогодаТемператураВлажностьДавлениеВетер, м/сВероятность осадков
    00:00Ясно и безоблачно+15°C59 %754 мм4.5 м/с2 %
    03:00Ясно и безоблачно+13°C65 %755 мм3.6 м/с2 %
    06:00Ясно и безоблачно+12°C68 %756 мм3.7 м/с2 %
    09:00Ясно и безоблачно+17°C57 %756 мм4.1 м/с2 %
    12:00Ясно и безоблачно+21°C45 %757 мм4.5 м/с2 %
    15:00Ясно и безоблачно+22°C43 %756 мм3.7 м/с6 %
    18:00Ясно и безоблачно+23°C42 %756 мм3.5 м/с5 %
    21:00Ясно и безоблачно+18°C54 %755 мм3.1 м/с4 %
  • 25мая
    Суббота
    +11°
    +24°
    Ясно и безоблачно
    ВремяПогодаТемператураВлажностьДавлениеВетер, м/сВероятность осадков
    00:00Ясно и безоблачно+14°C62 %756 мм2.7 м/с2 %
    03:00Ясно и безоблачно+12°C71 %756 мм2.3 м/с2 %
    06:00Ясно и безоблачно+12°C74 %756 мм2.7 м/с2 %
    09:00Ясно и безоблачно+18°C61 %756 мм2.4 м/с2 %
    12:00Практически безоблачно+22°C46 %756 мм2.7 м/с8 %
    15:00Ясно и безоблачно+23°C43 %755 мм2.4 м/с13 %
    18:00Ясно и безоблачно+24°C42 %754 мм2.3 м/с16 %
    21:00Практически безоблачно+19°C62 %753 мм2.0 м/с6 %
Мы используем cookies
Соглашаюсь